Bělehrad, Srbsko

22:16 CEST 1. Říjen 2014 (GMT +0200)
Beograd-Karaburma | Change Station
CLOSE
Current Station
Osobní povětrnostní stanice
Location: Beograd-Karaburma, SRBIJA
Nadmořská výška: 355 ft
Poblíž povětrnostní stanice

Výška 355 ft 44.81 °N, 20.53 °E | Updated 29 seconds ago

Clear
Jasno
58.1 °F
Pocit jako 58.1 °F
S
6.0
Vítr proměnlivý Vítr od jižní
Gusts 6.0 mil/h

Dnes
Vysoké -- | Nízké -- °F
--% Možnost srážek
Včera
Vysoké -- | Nízké -- °F
Precip. -- inčů
6:35 AM 6:19 PM
Dorůstající srpek, 50% visible
Tlak 30.27 inčů
Viditelnost -9999.0 mílí
Zataženo
Rosný bod 52 °F
Vlhkost 80%
Dešťové srážky 0.00 inčů
Sněhová pokrývka Není k dispozici
UV záření Není k dispozici
Pyl Není k dispozici
Kvalita ovzduší Není k dispozici
Flu Activity Není k dispozici
METAR LYBE 302030Z 19003KT CAVOK 15/11 Q1025 NOSIG

More Conditions Fewer Conditions

Tlak 30.27 inčů
Viditelnost -9999.0 mílí
Zataženo
Rosný bod 52 °F
Vlhkost 80%
Dešťové srážky 0.00 inčů
Sněhová pokrývka Není k dispozici
UV záření Není k dispozici
Pyl Není k dispozici
Kvalita ovzduší Není k dispozici
Flu Activity Není k dispozici
METAR LYBE 302030Z 19003KT CAVOK 15/11 Q1025 NOSIG

More Conditions Fewer Conditions

10-Day Weather Forecast

Almanac

Astronomie

Oct. 01, 2014 Východ Západ
Skutečný čas 06:35 CEST 18:19 CEST
Občanský soumrak 06:06 CEST 18:48 CEST
Námořní soumrak 05:32 CEST 19:22 CEST
Astronomický soumrak 04:58 CEST 19:56 CEST
Měsíc 13:31 CEST 23:20 CEST
Délka denního světla 12h 41m
Délka dne
11h 43m
Tomorrow will be 3m 4s shorter.
Dorůstající srpek, 50% of the Moon is Illuminated
Dnes
Dorůstající srpek
Říj 8
Úplněk
Říj 15
Ubývající
Říj 23
Nov
Říj 30
První čtvrť

Community

WunderPhotos

Upload Photos

1,758,022 snímků staženo!

WunderBlogs® & News

By Dr. Jeff Masters
Director of Meteorology, Weather Underground
By Kari Strenfel
Meteorologist, Weather Underground
By Christopher C. Burt
Weather Historian, Weather Underground
October 1, 2014
October 1, 2014
October 1, 2014

Nearby

Výška sněhu

Not available.

Seizmická činnost

Město Distance Mag. Čas & datum
Žádné zemětřesení v okolí nebylo hlášeno
Minimální zobrazený rozsah je 2.5.

Pobřežní teplota vody

Lokalita Teplota
Stanice nic nehlásí

Poblíž povětrnostní stanice